createdAt,value
2023-01-20T00:01:31.870Z,98122.44
2023-01-20T00:03:59.373Z,98126.34
2023-01-20T00:06:30.092Z,98124.31
2023-01-20T00:09:01.637Z,98134.72
2023-01-20T00:11:29.066Z,98136.81
2023-01-20T00:14:01.779Z,98143.38
2023-01-20T00:16:29.364Z,98141.97
2023-01-20T00:18:56.602Z,98149.97
2023-01-20T00:21:24.194Z,98144.66
2023-01-20T00:23:51.183Z,98149.97
2023-01-20T00:26:21.171Z,98147.00
2023-01-20T00:28:48.930Z,98149.75
2023-01-20T00:31:21.530Z,98158.44
2023-01-20T00:33:50.428Z,98156.75
2023-01-20T00:36:18.709Z,98156.50
2023-01-20T00:38:46.705Z,98167.25
2023-01-20T00:41:14.514Z,98156.19
2023-01-20T00:43:41.488Z,98165.31
2023-01-20T00:46:08.602Z,98164.81
2023-01-20T00:48:36.002Z,98168.47
2023-01-20T00:51:03.631Z,98167.06
2023-01-20T00:53:31.033Z,98169.41
2023-01-20T00:55:58.005Z,98167.41
2023-01-20T00:58:25.203Z,98174.34
2023-01-20T01:00:53.593Z,98172.81
2023-01-20T01:03:20.936Z,98179.19
2023-01-20T01:05:47.835Z,98172.72
2023-01-20T01:08:14.864Z,98182.19
2023-01-20T01:10:41.810Z,98184.69
2023-01-20T01:13:09.403Z,98188.41
2023-01-20T01:15:36.477Z,98183.72
2023-01-20T01:18:03.634Z,98186.13
2023-01-20T01:20:30.791Z,98191.28
2023-01-20T01:22:57.779Z,98193.44
2023-01-20T01:25:24.913Z,98195.06
2023-01-20T01:27:51.653Z,98203.38
2023-01-20T01:30:18.542Z,98203.88
2023-01-20T01:32:45.251Z,98199.34
2023-01-20T01:35:12.495Z,98205.78
2023-01-20T01:37:39.486Z,98198.84
2023-01-20T01:40:07.069Z,98215.94
2023-01-20T01:42:34.154Z,98213.75
2023-01-20T01:45:10.208Z,98216.44
2023-01-20T01:47:44.809Z,98227.06
2023-01-20T01:50:22.699Z,98222.41
2023-01-20T01:52:53.259Z,98228.63
2023-01-20T01:55:25.953Z,98224.13
2023-01-20T01:57:54.484Z,98222.50
2023-01-20T02:00:21.656Z,98224.59
2023-01-20T02:02:49.097Z,98227.72
2023-01-20T02:05:17.597Z,98226.03
2023-01-20T02:07:47.504Z,98229.16
2023-01-20T02:10:15.529Z,98225.94
2023-01-20T02:12:49.378Z,98234.03
2023-01-20T02:15:18.121Z,98239.72
2023-01-20T02:18:01.340Z,98237.19
2023-01-20T02:21:13.397Z,98242.28
2023-01-20T02:23:53.145Z,98241.44
2023-01-20T02:26:51.966Z,98250.22
2023-01-20T02:29:36.218Z,98252.66
2023-01-20T02:32:12.932Z,98256.94
2023-01-20T02:35:02.069Z,98257.97
2023-01-20T02:37:34.257Z,98263.50
2023-01-20T02:40:22.321Z,98264.91
2023-01-20T02:43:00.538Z,98266.06
2023-01-20T02:45:51.911Z,98269.66
2023-01-20T02:48:25.888Z,98268.63
2023-01-20T02:51:13.818Z,98269.28
2023-01-20T02:53:53.945Z,98274.41
2023-01-20T02:56:40.038Z,98274.50
2023-01-20T02:59:12.974Z,98277.66
2023-01-20T03:01:48.584Z,98276.13
2023-01-20T03:04:21.090Z,98277.28
2023-01-20T03:06:52.357Z,98282.59
2023-01-20T03:09:23.732Z,98285.75
2023-01-20T03:11:56.835Z,98285.06
2023-01-20T03:14:23.714Z,98298.84
2023-01-20T03:16:50.905Z,98299.31
2023-01-20T03:19:20.509Z,98293.31
2023-01-20T03:21:48.368Z,98297.13
2023-01-20T03:24:15.495Z,98293.75
2023-01-20T03:26:42.394Z,98298.69
2023-01-20T03:29:13.091Z,98296.97
2023-01-20T03:31:46.114Z,98303.91
2023-01-20T03:34:17.994Z,98300.41
2023-01-20T03:36:46.267Z,98299.38
2023-01-20T03:39:13.711Z,98307.13
2023-01-20T03:42:09.095Z,98312.59
2023-01-20T03:45:10.672Z,98312.47
2023-01-20T03:47:49.546Z,98321.88
2023-01-20T03:50:25.435Z,98323.50
2023-01-20T03:52:55.682Z,98322.22
2023-01-20T03:55:30.201Z,98320.25
2023-01-20T03:58:13.912Z,98318.47
2023-01-20T04:00:44.840Z,98315.59
2023-01-20T04:03:21.748Z,98316.63
2023-01-20T04:05:50.657Z,98317.44
2023-01-20T04:08:20.824Z,98319.41
2023-01-20T04:10:48.859Z,98325.19
2023-01-20T04:13:16.235Z,98323.09
2023-01-20T04:15:45.407Z,98321.59
2023-01-20T04:18:14.508Z,98330.63
2023-01-20T04:20:42.721Z,98330.06
2023-01-20T04:23:17.307Z,98330.53
2023-01-20T04:25:44.679Z,98330.53
2023-01-20T04:28:11.391Z,98335.59
2023-01-20T04:30:38.460Z,98343.38
2023-01-20T04:33:05.295Z,98346.59
2023-01-20T04:35:31.994Z,98348.78
2023-01-20T04:37:58.758Z,98358.53
2023-01-20T04:40:25.572Z,98359.09
2023-01-20T04:42:52.348Z,98366.75
2023-01-20T04:45:19.073Z,98361.53
2023-01-20T04:47:45.902Z,98356.47
2023-01-20T04:50:14.259Z,98353.91
2023-01-20T04:52:41.266Z,98357.47
2023-01-20T04:55:14.542Z,98363.63
2023-01-20T04:57:41.789Z,98372.75
2023-01-20T05:00:09.407Z,98369.41
2023-01-20T05:02:36.514Z,98373.72
2023-01-20T05:05:03.534Z,98373.38
2023-01-20T05:07:30.457Z,98389.34
2023-01-20T05:09:57.416Z,98387.50
2023-01-20T05:12:24.392Z,98390.41
2023-01-20T05:14:51.355Z,98394.09
2023-01-20T05:17:18.629Z,98399.91
2023-01-20T05:19:45.812Z,98395.25
2023-01-20T05:22:12.850Z,98402.91
2023-01-20T05:24:39.789Z,98405.00
2023-01-20T05:27:12.721Z,98405.78
2023-01-20T05:29:39.915Z,98413.31
2023-01-20T05:32:06.923Z,98422.78
2023-01-20T05:34:34.907Z,98421.19
2023-01-20T05:37:01.712Z,98428.22
2023-01-20T05:39:28.547Z,98430.53
2023-01-20T05:41:55.272Z,98423.59
2023-01-20T05:44:22.041Z,98428.44
2023-01-20T05:46:48.933Z,98428.69
2023-01-20T05:49:15.670Z,98432.84
2023-01-20T05:51:42.370Z,98437.13
2023-01-20T05:54:09.116Z,98437.34
2023-01-20T05:56:35.930Z,98450.66
2023-01-20T05:59:02.915Z,98451.81
2023-01-20T06:01:29.792Z,98458.16
2023-01-20T06:03:56.739Z,98457.25
2023-01-20T06:06:23.819Z,98443.00
2023-01-20T06:08:52.935Z,98455.97
2023-01-20T06:11:20.599Z,98458.63
2023-01-20T06:13:48.575Z,98459.41
2023-01-20T06:16:17.897Z,98474.31
2023-01-20T06:18:45.135Z,98474.66
2023-01-20T06:21:12.169Z,98473.88
2023-01-20T06:24:02.810Z,98481.03
2023-01-20T06:26:29.714Z,98479.97
2023-01-20T06:29:01.321Z,98480.81
2023-01-20T06:31:28.605Z,98488.53
2023-01-20T06:33:56.372Z,98492.38
2023-01-20T06:36:23.398Z,98497.47
2023-01-20T06:38:53.106Z,98502.09
2023-01-20T06:41:21.154Z,98494.19
2023-01-20T06:43:50.130Z,98498.22
2023-01-20T06:46:17.347Z,98500.88
2023-01-20T06:48:45.245Z,98501.56
2023-01-20T06:51:17.618Z,98506.88
2023-01-20T06:53:45.096Z,98507.47
2023-01-20T06:56:13.404Z,98512.09
2023-01-20T06:58:40.818Z,98510.13
2023-01-20T07:01:14.422Z,98508.63
2023-01-20T07:03:44.572Z,98518.00
2023-01-20T07:06:27.632Z,98517.41
2023-01-20T07:08:55.848Z,98521.19
2023-01-20T07:11:24.351Z,98528.72
2023-01-20T07:13:51.093Z,98535.09
2023-01-20T07:16:18.033Z,98539.75
2023-01-20T07:18:47.901Z,98536.78
2023-01-20T07:21:14.927Z,98536.44
2023-01-20T07:23:41.988Z,98546.81
2023-01-20T07:26:12.298Z,98552.38
2023-01-20T07:28:39.217Z,98549.47
2023-01-20T07:31:08.201Z,98559.53
2023-01-20T07:33:35.424Z,98564.69
2023-01-20T07:36:02.416Z,98561.16
2023-01-20T07:38:30.208Z,98576.28
2023-01-20T07:41:03.447Z,98580.34
2023-01-20T07:43:32.016Z,98581.31
2023-01-20T07:46:01.146Z,98585.06
2023-01-20T07:48:30.509Z,98589.16
2023-01-20T07:51:02.819Z,98585.06
2023-01-20T07:53:30.449Z,98597.34
2023-01-20T07:56:01.861Z,98593.19
2023-01-20T07:58:29.195Z,98595.25
2023-01-20T08:00:56.923Z,98604.06
2023-01-20T08:03:26.005Z,98604.22
2023-01-20T08:05:54.068Z,98614.75
2023-01-20T08:08:21.028Z,98610.16
2023-01-20T08:10:54.060Z,98613.41
2023-01-20T08:13:20.818Z,98616.22
2023-01-20T08:15:47.661Z,98619.25
2023-01-20T08:18:14.405Z,98622.34
2023-01-20T08:20:41.875Z,98629.06
2023-01-20T08:23:08.733Z,98632.69
2023-01-20T08:25:35.562Z,98632.09
2023-01-20T08:28:04.367Z,98635.50
2023-01-20T08:30:32.427Z,98644.41
2023-01-20T08:32:59.363Z,98645.81
2023-01-20T08:35:26.458Z,98651.47
2023-01-20T08:37:53.351Z,98652.53
2023-01-20T08:40:20.681Z,98648.53
2023-01-20T08:42:47.511Z,98649.59
2023-01-20T08:45:15.012Z,98653.84
2023-01-20T08:47:45.939Z,98648.97
2023-01-20T08:50:15.110Z,98662.31
2023-01-20T08:52:42.746Z,98659.47
2023-01-20T08:55:10.405Z,98668.63
2023-01-20T08:57:37.509Z,98660.28
2023-01-20T09:00:07.527Z,98666.09
2023-01-20T09:02:34.275Z,98660.66
2023-01-20T09:05:01.057Z,98668.44
2023-01-20T09:07:27.848Z,98670.50
2023-01-20T09:09:54.757Z,98669.38
2023-01-20T09:12:21.603Z,98667.72
2023-01-20T09:14:48.305Z,98671.94
2023-01-20T09:17:15.138Z,98673.41
2023-01-20T09:19:41.875Z,98675.50
2023-01-20T09:22:08.683Z,98674.53
2023-01-20T09:24:35.425Z,98676.22
2023-01-20T09:27:02.301Z,98685.97
2023-01-20T09:29:29.116Z,98679.09
2023-01-20T09:31:59.279Z,98682.69
2023-01-20T09:34:29.434Z,98686.72
2023-01-20T09:37:19.246Z,98680.59
2023-01-20T09:40:05.181Z,98692.59
2023-01-20T09:43:24.057Z,98695.78
2023-01-20T09:46:07.576Z,98696.84
2023-01-20T09:49:09.179Z,98704.16
2023-01-20T09:52:11.389Z,98707.38
2023-01-20T09:54:47.535Z,98700.44
2023-01-20T09:57:14.964Z,98710.78
2023-01-20T09:59:52.348Z,98701.88
2023-01-20T10:02:26.552Z,98710.00
2023-01-20T10:05:01.341Z,98704.94
2023-01-20T10:07:39.052Z,98713.94
2023-01-20T10:10:27.380Z,98714.47
2023-01-20T10:13:03.475Z,98720.69
2023-01-20T10:15:35.161Z,98711.63
2023-01-20T10:18:12.647Z,98716.47
2023-01-20T10:20:47.141Z,98712.25
2023-01-20T10:23:16.567Z,98715.78
2023-01-20T10:25:57.387Z,98720.06
2023-01-20T10:28:30.807Z,98722.09
2023-01-20T10:31:00.807Z,98728.63
2023-01-20T10:33:34.439Z,98732.41
2023-01-20T10:36:01.231Z,98723.66
2023-01-20T10:38:40.166Z,98723.72
2023-01-20T10:41:21.430Z,98727.28
2023-01-20T10:43:48.562Z,98731.16
2023-01-20T10:46:49.785Z,98730.34
2023-01-20T10:49:41.214Z,98723.94
2023-01-20T10:52:29.388Z,98727.13
2023-01-20T10:55:40.618Z,98724.66
2023-01-20T10:58:20.774Z,98732.22
2023-01-20T11:00:49.757Z,98732.56
2023-01-20T11:03:20.260Z,98726.88
2023-01-20T11:05:51.729Z,98724.84
2023-01-20T11:08:22.563Z,98732.72
2023-01-20T11:10:56.374Z,98733.63
2023-01-20T11:13:23.189Z,98731.25
2023-01-20T11:15:54.807Z,98730.97
2023-01-20T11:18:27.922Z,98731.00
2023-01-20T11:21:04.759Z,98736.00
2023-01-20T11:23:55.761Z,98728.19
2023-01-20T11:26:28.155Z,98734.75
2023-01-20T11:28:59.623Z,98727.03
2023-01-20T11:31:43.768Z,98735.13
2023-01-20T11:34:26.422Z,98731.75
2023-01-20T11:37:05.574Z,98742.03
2023-01-20T11:39:40.636Z,98733.72
2023-01-20T11:42:16.474Z,98736.41
2023-01-20T11:45:19.697Z,98742.91
2023-01-20T11:48:16.125Z,98738.69
2023-01-20T11:51:02.460Z,98739.00
2023-01-20T11:53:32.278Z,98747.13
2023-01-20T11:56:12.163Z,98747.66
2023-01-20T11:58:58.551Z,98737.75
2023-01-20T12:01:27.874Z,98733.97
2023-01-20T12:04:18.490Z,98741.50
2023-01-20T12:07:07.168Z,98745.50
2023-01-20T12:09:38.346Z,98754.28
2023-01-20T12:12:07.089Z,98742.63
2023-01-20T12:14:54.567Z,98753.03
2023-01-20T12:17:46.274Z,98751.97
2023-01-20T12:20:20.891Z,98750.19
2023-01-20T12:23:14.398Z,98745.19
2023-01-20T12:25:52.099Z,98758.34
2023-01-20T12:28:35.027Z,98753.78
2023-01-20T12:31:04.162Z,98752.41
2023-01-20T12:33:35.027Z,98749.41
2023-01-20T12:36:07.802Z,98753.53
2023-01-20T12:38:54.892Z,98756.03
2023-01-20T12:41:39.896Z,98752.53
2023-01-20T12:44:47.066Z,98758.72
2023-01-20T12:47:48.144Z,98744.22
2023-01-20T12:50:39.789Z,98753.59
2023-01-20T12:53:31.383Z,98750.84
2023-01-20T12:56:26.349Z,98752.50
2023-01-20T12:59:07.342Z,98752.28
2023-01-20T13:01:42.801Z,98759.25
2023-01-20T13:04:41.708Z,98755.94
2023-01-20T13:07:24.829Z,98752.09
2023-01-20T13:10:09.783Z,98761.25
2023-01-20T13:12:46.456Z,98753.94
2023-01-20T13:15:19.583Z,98761.38
2023-01-20T13:18:08.862Z,98750.66
2023-01-20T13:20:40.517Z,98755.75
2023-01-20T13:23:13.504Z,98747.06
2023-01-20T13:25:41.458Z,98754.59
2023-01-20T13:28:29.544Z,98755.75
2023-01-20T13:31:00.805Z,98764.84
2023-01-20T13:33:41.838Z,98757.91
2023-01-20T13:36:15.084Z,98763.50
2023-01-20T13:38:44.414Z,98758.09
2023-01-20T13:41:13.392Z,98764.78
2023-01-20T13:43:44.247Z,98758.06
2023-01-20T13:46:15.265Z,98767.44
2023-01-20T13:49:12.362Z,98766.13
2023-01-20T13:51:42.822Z,98767.19
2023-01-20T13:54:25.241Z,98775.22
2023-01-20T13:56:52.725Z,98767.94
2023-01-20T13:59:19.535Z,98773.00
2023-01-20T14:01:46.274Z,98783.25
2023-01-20T14:04:21.827Z,98778.97
2023-01-20T14:06:53.156Z,98783.53
2023-01-20T14:09:22.155Z,98770.44
2023-01-20T14:11:51.146Z,98777.63
2023-01-20T14:14:20.286Z,98778.13
2023-01-20T14:16:47.311Z,98784.31
2023-01-20T14:19:35.082Z,98793.69
2023-01-20T14:22:15.921Z,98787.22
2023-01-20T14:24:49.141Z,98790.13
2023-01-20T14:27:28.257Z,98798.66
2023-01-20T14:29:57.252Z,98806.09
2023-01-20T14:32:25.646Z,98799.56
2023-01-20T14:34:53.274Z,98804.13
2023-01-20T14:37:19.960Z,98807.13
2023-01-20T14:39:50.577Z,98803.38
2023-01-20T14:42:22.684Z,98810.81
2023-01-20T14:44:51.328Z,98805.38
2023-01-20T14:47:20.037Z,98813.94
2023-01-20T14:49:48.694Z,98817.13
2023-01-20T14:52:22.404Z,98813.88
2023-01-20T14:54:49.995Z,98812.53
2023-01-20T14:57:27.489Z,98807.13
2023-01-20T15:00:14.621Z,98813.50
2023-01-20T15:03:01.400Z,98818.03
2023-01-20T15:05:38.041Z,98812.66
2023-01-20T15:08:32.655Z,98815.16
2023-01-20T15:11:18.483Z,98816.78
2023-01-20T15:13:52.883Z,98812.94
2023-01-20T15:16:36.480Z,98813.06
2023-01-20T15:19:19.990Z,98811.44
2023-01-20T15:21:50.030Z,98813.84
2023-01-20T15:24:21.271Z,98813.50
2023-01-20T15:26:51.209Z,98808.75
2023-01-20T15:29:31.043Z,98813.31
2023-01-20T15:32:00.471Z,98818.59
2023-01-20T15:34:28.232Z,98817.47
2023-01-20T15:36:56.088Z,98819.47
2023-01-20T15:39:30.189Z,98825.25
2023-01-20T15:41:57.547Z,98818.72
2023-01-20T15:44:25.910Z,98821.25
2023-01-20T15:46:56.797Z,98823.31
2023-01-20T15:49:25.316Z,98825.91
2023-01-20T15:51:53.055Z,98821.22
2023-01-20T15:54:21.126Z,98824.63
2023-01-20T15:56:47.907Z,98829.00
2023-01-20T15:59:17.577Z,98826.97
2023-01-20T16:01:49.828Z,98833.06
2023-01-20T16:04:17.178Z,98832.47
2023-01-20T16:06:44.721Z,98837.59
2023-01-20T16:09:25.745Z,98840.34
2023-01-20T16:11:53.118Z,98838.06
2023-01-20T16:14:19.887Z,98846.09
2023-01-20T16:16:46.829Z,98839.34
2023-01-20T16:19:14.653Z,98844.88
2023-01-20T16:21:43.753Z,98849.16
2023-01-20T16:24:12.453Z,98850.34
2023-01-20T16:26:39.921Z,98851.66
2023-01-20T16:29:08.968Z,98852.75
2023-01-20T16:31:35.928Z,98857.56
2023-01-20T16:34:04.252Z,98854.53
2023-01-20T16:36:31.034Z,98858.19
2023-01-20T16:38:57.967Z,98861.91
2023-01-20T16:41:28.016Z,98862.41
2023-01-20T16:43:56.123Z,98872.94
2023-01-20T16:46:25.671Z,98871.63
2023-01-20T16:48:54.332Z,98879.53
2023-01-20T16:51:23.197Z,98887.88
2023-01-20T16:53:50.110Z,98881.34
2023-01-20T16:56:19.986Z,98883.06
2023-01-20T16:58:47.753Z,98885.03
2023-01-20T17:01:14.538Z,98884.13
2023-01-20T17:03:42.459Z,98888.22
2023-01-20T17:06:18.037Z,98887.31
2023-01-20T17:08:46.487Z,98885.94
2023-01-20T17:11:19.669Z,98884.06
2023-01-20T17:13:46.809Z,98892.91
2023-01-20T17:16:14.173Z,98887.00
2023-01-20T17:18:48.185Z,98893.50
2023-01-20T17:21:15.138Z,98895.91
2023-01-20T17:23:44.010Z,98897.41
2023-01-20T17:26:10.882Z,98899.03
2023-01-20T17:28:37.700Z,98895.22
2023-01-20T17:31:06.303Z,98908.59
2023-01-20T17:33:33.982Z,98903.94
2023-01-20T17:36:03.940Z,98903.53
2023-01-20T17:38:33.386Z,98897.81
2023-01-20T17:41:04.263Z,98905.53
2023-01-20T17:43:40.264Z,98904.75
2023-01-20T17:46:22.318Z,98903.03
2023-01-20T17:48:50.138Z,98906.75
2023-01-20T17:51:28.284Z,98912.78
2023-01-20T17:53:57.512Z,98908.50
2023-01-20T17:56:24.843Z,98913.38
2023-01-20T17:58:52.060Z,98909.56
2023-01-20T18:01:27.311Z,98906.66
2023-01-20T18:03:56.534Z,98912.00
2023-01-20T18:06:24.879Z,98914.09
2023-01-20T18:08:56.921Z,98913.03
2023-01-20T18:11:25.258Z,98919.91
2023-01-20T18:13:55.072Z,98923.16
2023-01-20T18:16:24.327Z,98919.44
2023-01-20T18:18:51.235Z,98925.22
2023-01-20T18:21:23.409Z,98926.16
2023-01-20T18:23:53.053Z,98933.91
2023-01-20T18:26:22.197Z,98927.50
2023-01-20T18:28:49.904Z,98928.91
2023-01-20T18:31:18.975Z,98937.03
2023-01-20T18:33:48.644Z,98932.28
2023-01-20T18:36:23.995Z,98930.53
2023-01-20T18:38:52.596Z,98930.66
2023-01-20T18:41:20.522Z,98935.69
2023-01-20T18:43:48.218Z,98929.75
2023-01-20T18:46:16.021Z,98924.06
2023-01-20T18:48:49.049Z,98930.25
2023-01-20T18:51:17.809Z,98931.97
2023-01-20T18:53:45.936Z,98930.81
2023-01-20T18:56:15.199Z,98928.94
2023-01-20T18:58:47.056Z,98929.66
2023-01-20T19:01:20.029Z,98934.88
2023-01-20T19:03:49.592Z,98943.34
2023-01-20T19:06:25.139Z,98942.19
2023-01-20T19:08:53.071Z,98938.31
2023-01-20T19:11:25.300Z,98938.94
2023-01-20T19:13:53.659Z,98942.09
2023-01-20T19:16:27.435Z,98934.88
2023-01-20T19:18:57.400Z,98934.53
2023-01-20T19:21:26.060Z,98931.97
2023-01-20T19:24:01.405Z,98929.03
2023-01-20T19:26:29.093Z,98937.88
2023-01-20T19:28:58.089Z,98939.03
2023-01-20T19:31:25.463Z,98945.53
2023-01-20T19:33:52.766Z,98941.81
2023-01-20T19:36:20.675Z,98944.03
2023-01-20T19:38:47.893Z,98945.16
2023-01-20T19:41:17.760Z,98947.00
2023-01-20T19:43:47.888Z,98944.81
2023-01-20T19:46:18.732Z,98947.75
2023-01-20T19:48:45.650Z,98944.81
2023-01-20T19:51:15.281Z,98941.44
2023-01-20T19:53:43.707Z,98947.00
2023-01-20T19:56:13.623Z,98943.94
2023-01-20T19:58:41.672Z,98942.88
2023-01-20T20:01:10.756Z,98941.00
2023-01-20T20:03:38.158Z,98945.56
2023-01-20T20:06:07.359Z,98944.97
2023-01-20T20:08:37.429Z,98948.72
2023-01-20T20:11:04.290Z,98946.72
2023-01-20T20:13:31.155Z,98949.41
2023-01-20T20:16:02.770Z,98950.94
2023-01-20T20:18:29.866Z,98953.38
2023-01-20T20:20:56.756Z,98958.97
2023-01-20T20:23:24.092Z,98962.47
2023-01-20T20:26:00.496Z,98968.38
2023-01-20T20:28:28.630Z,98959.13
2023-01-20T20:30:56.009Z,98963.31
2023-01-20T20:33:24.518Z,98968.66
2023-01-20T20:35:51.674Z,98964.94
2023-01-20T20:38:19.519Z,98967.72
2023-01-20T20:40:46.543Z,98967.72
2023-01-20T20:43:13.715Z,98977.78
2023-01-20T20:45:40.901Z,98975.34
2023-01-20T20:48:10.202Z,98974.53
2023-01-20T20:50:37.143Z,98982.22
2023-01-20T20:53:04.208Z,98984.81
2023-01-20T20:55:31.467Z,98983.56
2023-01-20T20:57:58.245Z,98987.84
2023-01-20T21:00:28.122Z,98990.28
2023-01-20T21:02:57.536Z,98996.91
2023-01-20T21:05:24.481Z,98997.59
2023-01-20T21:07:51.751Z,98995.59
2023-01-20T21:10:21.120Z,98991.16
2023-01-20T21:12:52.102Z,98993.59
2023-01-20T21:15:19.907Z,98995.34
2023-01-20T21:17:46.687Z,99003.16
2023-01-20T21:20:13.721Z,98999.81
2023-01-20T21:22:40.831Z,99004.59
2023-01-20T21:25:08.326Z,99003.06
2023-01-20T21:27:36.282Z,99006.09
2023-01-20T21:30:03.219Z,98997.81
2023-01-20T21:32:30.857Z,99004.22
2023-01-20T21:34:58.923Z,98997.03
2023-01-20T21:37:25.728Z,98994.94
2023-01-20T21:39:52.441Z,98992.00
2023-01-20T21:42:19.121Z,99001.44
2023-01-20T21:44:45.907Z,98993.97
2023-01-20T21:47:12.716Z,98994.31
2023-01-20T21:49:58.073Z,98987.09
2023-01-20T21:52:45.254Z,98990.94
2023-01-20T21:55:26.208Z,98992.69
2023-01-20T21:57:53.136Z,98989.69
2023-01-20T22:00:20.489Z,99001.06
2023-01-20T22:02:48.924Z,98996.66
2023-01-20T22:05:16.198Z,99003.22
2023-01-20T22:07:43.070Z,99006.81
2023-01-20T22:10:10.960Z,99004.63
2023-01-20T22:12:38.067Z,99006.81
2023-01-20T22:15:05.460Z,99001.47
2023-01-20T22:17:32.385Z,99009.38
2023-01-20T22:19:59.462Z,99013.69
2023-01-20T22:22:26.294Z,99024.28
2023-01-20T22:24:53.671Z,99022.53
2023-01-20T22:27:20.408Z,99021.81
2023-01-20T22:29:47.245Z,99030.28
2023-01-20T22:32:14.140Z,99032.97
2023-01-20T22:34:42.201Z,99038.19
2023-01-20T22:37:09.347Z,99043.53
2023-01-20T22:39:36.079Z,99047.25
2023-01-20T22:42:02.969Z,99046.78
2023-01-20T22:44:29.743Z,99051.09
2023-01-20T22:46:56.470Z,99047.63
2023-01-20T22:49:23.302Z,99050.28
2023-01-20T22:51:50.453Z,99049.34
2023-01-20T22:54:17.219Z,99055.84
2023-01-20T22:56:44.103Z,99042.72
2023-01-20T22:59:13.741Z,99046.19
2023-01-20T23:01:40.919Z,99047.00
2023-01-20T23:04:11.819Z,99050.16
2023-01-20T23:06:39.521Z,99053.41
2023-01-20T23:09:09.150Z,99052.91
2023-01-20T23:11:38.138Z,99047.78
2023-01-20T23:14:06.306Z,99058.59
2023-01-20T23:16:33.159Z,99062.91
2023-01-20T23:18:59.908Z,99061.63
2023-01-20T23:21:26.708Z,99062.22
2023-01-20T23:23:56.319Z,99060.47
2023-01-20T23:26:29.048Z,99065.22
2023-01-20T23:28:56.391Z,99064.38
2023-01-20T23:31:25.175Z,99066.13
2023-01-20T23:33:53.901Z,99064.06
2023-01-20T23:36:25.773Z,99069.41
2023-01-20T23:38:54.243Z,99065.56
2023-01-20T23:41:21.407Z,99059.88
2023-01-20T23:43:48.204Z,99058.59
2023-01-20T23:46:15.164Z,99072.97
2023-01-20T23:48:42.006Z,99064.75
2023-01-20T23:51:09.607Z,99074.22
2023-01-20T23:53:38.806Z,99074.81
2023-01-20T23:56:10.546Z,99074.41
2023-01-20T23:58:37.567Z,99074.25
